createdAt,value
2023-10-13T00:00:41.976Z,19.83
2023-10-13T00:03:20.107Z,19.94
2023-10-13T00:05:48.018Z,19.89
2023-10-13T00:08:15.626Z,19.80
2023-10-13T00:10:43.224Z,19.76
2023-10-13T00:13:10.580Z,19.72
2023-10-13T00:15:58.521Z,19.74
2023-10-13T00:18:28.374Z,19.74
2023-10-13T00:20:57.920Z,19.69
2023-10-13T00:23:28.181Z,19.76
2023-10-13T00:25:59.454Z,19.60
2023-10-13T00:28:47.875Z,19.67
2023-10-13T00:31:15.602Z,19.64
2023-10-13T00:33:46.212Z,19.60
2023-10-13T00:36:18.431Z,19.69
2023-10-13T00:38:49.663Z,19.41
2023-10-13T00:41:18.661Z,19.52
2023-10-13T00:43:46.918Z,19.45
2023-10-13T00:46:14.600Z,19.29
2023-10-13T00:48:52.788Z,19.27
2023-10-13T00:51:39.045Z,19.34
2023-10-13T00:54:12.314Z,19.37
2023-10-13T00:57:06.485Z,19.32
2023-10-13T00:59:44.710Z,19.32
2023-10-13T01:02:39.230Z,19.26
2023-10-13T01:05:11.151Z,19.31
2023-10-13T01:07:39.166Z,19.37
2023-10-13T01:10:13.704Z,19.45
2023-10-13T01:12:43.696Z,19.27
2023-10-13T01:15:12.362Z,19.37
2023-10-13T01:17:39.690Z,19.42
2023-10-13T01:20:07.407Z,19.37
2023-10-13T01:22:34.666Z,19.36
2023-10-13T01:25:14.581Z,19.31
2023-10-13T01:27:42.333Z,19.19
2023-10-13T01:30:24.119Z,19.25
2023-10-13T01:32:53.055Z,19.25
2023-10-13T01:35:25.107Z,19.28
2023-10-13T01:37:52.792Z,19.23
2023-10-13T01:40:30.262Z,19.34
2023-10-13T01:42:57.997Z,19.41
2023-10-13T01:45:30.309Z,19.49
2023-10-13T01:47:58.141Z,19.42
2023-10-13T01:50:31.721Z,19.45
2023-10-13T01:53:15.122Z,19.28
2023-10-13T01:55:45.191Z,19.20
2023-10-13T01:58:16.619Z,19.27
2023-10-13T02:00:44.947Z,19.27
2023-10-13T02:03:16.755Z,19.20
2023-10-13T02:05:50.470Z,19.29
2023-10-13T02:08:26.720Z,19.48
2023-10-13T02:10:58.004Z,19.54
2023-10-13T02:13:25.880Z,19.47
2023-10-13T02:16:05.197Z,19.52
2023-10-13T02:18:42.536Z,19.49
2023-10-13T02:21:13.965Z,19.44
2023-10-13T02:23:45.428Z,19.40
2023-10-13T02:26:17.209Z,19.31
2023-10-13T02:28:45.548Z,19.42
2023-10-13T02:31:13.071Z,19.44
2023-10-13T02:33:46.151Z,19.40
2023-10-13T02:36:13.867Z,19.43
2023-10-13T02:38:41.148Z,19.31
2023-10-13T02:41:29.973Z,19.42
2023-10-13T02:43:57.568Z,19.49
2023-10-13T02:46:27.058Z,19.41
2023-10-13T02:48:54.308Z,19.51
2023-10-13T02:51:26.783Z,19.47
2023-10-13T02:53:54.224Z,19.52
2023-10-13T02:56:21.995Z,19.40
2023-10-13T02:58:54.623Z,19.54
2023-10-13T03:01:23.439Z,19.56
2023-10-13T03:03:55.372Z,19.57
2023-10-13T03:06:25.275Z,19.55
2023-10-13T03:08:55.509Z,19.63
2023-10-13T03:11:25.325Z,19.68
2023-10-13T03:13:54.076Z,19.73
2023-10-13T03:16:21.506Z,19.87
2023-10-13T03:18:57.039Z,19.98
2023-10-13T03:21:31.002Z,19.83
2023-10-13T03:24:05.253Z,19.93
2023-10-13T03:26:36.024Z,19.86
2023-10-13T03:29:05.152Z,19.72
2023-10-13T03:31:38.218Z,19.72
2023-10-13T03:34:11.363Z,19.49
2023-10-13T03:36:57.416Z,19.49
2023-10-13T03:39:30.109Z,19.46
2023-10-13T03:42:00.980Z,19.49
2023-10-13T03:44:31.799Z,19.48
2023-10-13T03:47:09.534Z,19.59
2023-10-13T03:49:39.008Z,19.61
2023-10-13T03:52:07.231Z,19.53
2023-10-13T03:54:36.253Z,19.56
2023-10-13T04:00:32.502Z,19.60
2023-10-13T04:03:17.743Z,19.56
2023-10-13T04:06:02.514Z,19.41
2023-10-13T04:08:30.154Z,19.45
2023-10-13T04:10:57.657Z,19.37
2023-10-13T04:13:43.392Z,19.33
2023-10-13T04:16:22.934Z,19.43
2023-10-13T04:18:56.171Z,19.41
2023-10-13T04:21:42.540Z,19.44
2023-10-13T04:24:24.709Z,19.49
2023-10-13T04:27:11.357Z,19.38
2023-10-13T04:30:11.764Z,19.46
2023-10-13T04:32:39.922Z,19.31
2023-10-13T04:35:26.819Z,19.35
2023-10-13T04:37:56.941Z,19.07
2023-10-13T04:40:26.224Z,19.15
2023-10-13T04:43:05.361Z,19.19
2023-10-13T04:45:32.593Z,19.21
2023-10-13T04:48:29.350Z,19.10
2023-10-13T04:51:20.479Z,19.24
2023-10-13T04:54:13.467Z,18.98
2023-10-13T04:56:43.630Z,19.29
2023-10-13T04:59:36.721Z,19.32
2023-10-13T05:02:22.921Z,19.33
2023-10-13T05:05:09.653Z,19.48
2023-10-13T05:07:55.412Z,19.46
2023-10-13T05:10:41.552Z,19.54
2023-10-13T05:13:27.490Z,19.47
2023-10-13T05:16:13.609Z,19.58
2023-10-13T05:18:59.541Z,19.66
2023-10-13T05:21:45.368Z,19.71
2023-10-13T05:24:31.374Z,19.64
2023-10-13T05:27:17.704Z,19.43
2023-10-13T05:30:06.622Z,19.60
2023-10-13T05:33:11.599Z,19.45
2023-10-13T05:35:57.749Z,19.43
2023-10-13T05:38:43.839Z,19.38
2023-10-13T05:41:29.652Z,19.27
2023-10-13T05:44:15.761Z,19.49
2023-10-13T05:47:01.877Z,19.52
2023-10-13T05:49:50.947Z,19.49
2023-10-13T05:52:41.196Z,19.68
2023-10-13T05:55:27.709Z,19.71
2023-10-13T05:58:13.588Z,19.54
2023-10-13T06:01:00.865Z,19.83
2023-10-13T06:03:46.905Z,19.77
2023-10-13T06:06:33.250Z,19.76
2023-10-13T06:09:19.304Z,19.91
2023-10-13T06:12:05.099Z,19.98
2023-10-13T06:14:51.270Z,19.81
2023-10-13T06:17:37.532Z,20.04
2023-10-13T06:20:24.435Z,19.78
2023-10-13T06:23:10.371Z,19.94
2023-10-13T06:25:57.219Z,19.99
2023-10-13T06:28:42.901Z,19.87
2023-10-13T06:31:31.866Z,20.03
2023-10-13T06:33:59.373Z,20.08
2023-10-13T06:36:26.987Z,20.03
2023-10-13T06:38:56.911Z,19.90
2023-10-13T06:41:33.386Z,19.91
2023-10-13T06:44:06.448Z,20.01
2023-10-13T06:46:36.393Z,20.01
2023-10-13T06:49:04.253Z,20.13
2023-10-13T06:51:39.199Z,20.34
2023-10-13T06:54:12.779Z,20.30
2023-10-13T06:56:43.026Z,20.14
2023-10-13T06:59:11.364Z,20.23
2023-10-13T07:01:42.479Z,20.18
2023-10-13T07:04:17.284Z,20.37
2023-10-13T07:06:51.613Z,20.06
2023-10-13T07:09:37.272Z,20.18
2023-10-13T07:12:07.914Z,20.31
2023-10-13T07:14:35.449Z,20.38
2023-10-13T07:17:04.299Z,20.44
2023-10-13T07:19:32.264Z,20.47
2023-10-13T07:22:00.647Z,20.59
2023-10-13T07:24:37.148Z,20.61
2023-10-13T07:27:07.231Z,20.57
2023-10-13T07:29:37.338Z,20.06
2023-10-13T07:32:05.130Z,20.40
2023-10-13T07:34:37.152Z,20.65
2023-10-13T07:37:09.164Z,20.73
2023-10-13T07:39:40.084Z,20.77
2023-10-13T07:42:16.251Z,20.88
2023-10-13T07:44:47.727Z,20.90
2023-10-13T07:47:15.730Z,21.00
2023-10-13T07:49:43.041Z,20.95
2023-10-13T07:52:25.368Z,21.02
2023-10-13T07:55:14.416Z,21.07
2023-10-13T07:57:57.833Z,21.12
2023-10-13T08:00:43.991Z,21.17
2023-10-13T08:03:18.016Z,21.30
2023-10-13T08:06:04.702Z,21.21
2023-10-13T08:08:41.787Z,21.23
2023-10-13T08:11:12.847Z,21.31
2023-10-13T08:14:01.844Z,21.44
2023-10-13T08:16:53.909Z,21.40
2023-10-13T08:19:28.743Z,21.37
2023-10-13T08:22:15.733Z,21.54
2023-10-13T08:24:43.416Z,21.50
2023-10-13T08:27:35.109Z,21.53
2023-10-13T08:30:02.956Z,21.60
2023-10-13T08:32:32.929Z,21.73
2023-10-13T08:35:03.962Z,21.76
2023-10-13T08:37:48.934Z,22.07
2023-10-13T08:40:42.030Z,22.11
2023-10-13T08:43:13.571Z,22.13
2023-10-13T08:45:41.599Z,22.12
2023-10-13T08:48:16.250Z,22.24
2023-10-13T08:50:53.316Z,22.21
2023-10-13T08:53:27.745Z,22.25
2023-10-13T08:56:17.650Z,22.38
2023-10-13T08:58:54.596Z,22.52
2023-10-13T09:01:45.776Z,22.48
2023-10-13T09:04:20.156Z,22.63
2023-10-13T09:07:01.843Z,22.64
2023-10-13T09:09:59.603Z,22.61
2023-10-13T09:12:32.949Z,22.70
2023-10-13T09:15:18.370Z,22.94
2023-10-13T09:17:52.826Z,23.12
2023-10-13T09:20:36.472Z,23.25
2023-10-13T09:23:08.611Z,23.25
2023-10-13T09:25:37.229Z,23.27
2023-10-13T09:28:11.882Z,23.36
2023-10-13T09:30:44.944Z,23.72
2023-10-13T09:33:21.819Z,23.75
2023-10-13T09:35:51.834Z,23.81
2023-10-13T09:38:19.412Z,23.80
2023-10-13T09:40:57.929Z,23.79
2023-10-13T09:43:26.526Z,23.94
2023-10-13T09:46:16.690Z,24.00
2023-10-13T09:48:47.797Z,24.14
2023-10-13T09:51:15.516Z,24.26
2023-10-13T09:54:09.886Z,23.92
2023-10-13T09:56:53.313Z,24.34
2023-10-13T09:59:26.379Z,24.31
2023-10-13T10:01:58.530Z,24.44
2023-10-13T10:04:26.368Z,24.66
2023-10-13T10:06:53.987Z,24.85
2023-10-13T10:09:32.017Z,25.12
2023-10-13T10:11:59.651Z,25.37
2023-10-13T10:14:38.254Z,25.54
2023-10-13T10:17:09.193Z,25.24
2023-10-13T10:19:49.135Z,25.58
2023-10-13T10:22:26.794Z,25.61
2023-10-13T10:24:59.105Z,26.00
2023-10-13T10:27:30.410Z,26.21
2023-10-13T10:29:57.879Z,25.89
2023-10-13T10:32:35.605Z,26.18
2023-10-13T10:35:08.880Z,26.36
2023-10-13T10:37:36.292Z,26.52
2023-10-13T10:40:08.937Z,26.80
2023-10-13T10:42:36.185Z,27.51
2023-10-13T10:45:09.971Z,27.11
2023-10-13T10:47:40.878Z,27.17
2023-10-13T10:50:10.024Z,27.55
2023-10-13T10:52:40.956Z,27.60
2023-10-13T10:55:08.769Z,27.98
2023-10-13T10:57:39.407Z,28.45
2023-10-13T11:00:13.086Z,28.48
2023-10-13T11:02:40.885Z,28.61
2023-10-13T11:05:11.190Z,28.89
2023-10-13T11:07:38.585Z,29.06
2023-10-13T11:10:15.317Z,29.32
2023-10-13T11:12:54.537Z,29.68
2023-10-13T11:15:35.378Z,29.42
2023-10-13T11:18:06.862Z,29.11
2023-10-13T11:20:46.007Z,29.28
2023-10-13T11:23:16.586Z,29.82
2023-10-13T11:25:47.112Z,29.99
2023-10-13T11:28:30.732Z,30.03
2023-10-13T11:31:00.083Z,29.87
2023-10-13T11:33:32.383Z,30.42
2023-10-13T11:36:04.871Z,30.53
2023-10-13T11:38:37.301Z,30.80
2023-10-13T11:41:05.569Z,30.69
2023-10-13T11:43:56.392Z,30.97
2023-10-13T11:46:37.618Z,31.03
2023-10-13T11:49:17.401Z,31.22
2023-10-13T11:51:47.203Z,31.25
2023-10-13T11:54:15.793Z,31.51
2023-10-13T11:56:43.661Z,31.84
2023-10-13T11:59:25.600Z,31.82
2023-10-13T12:02:11.382Z,31.73
2023-10-13T12:04:56.185Z,31.89
2023-10-13T12:07:42.673Z,31.61
2023-10-13T12:10:17.980Z,31.81
2023-10-13T12:12:47.884Z,31.62
2023-10-13T12:15:37.901Z,31.63
2023-10-13T12:18:06.367Z,31.17
2023-10-13T12:20:34.751Z,31.43
2023-10-13T12:23:16.720Z,31.32
2023-10-13T12:26:01.530Z,30.96
2023-10-13T12:28:30.236Z,31.12
2023-10-13T12:31:05.363Z,30.81
2023-10-13T12:33:38.911Z,31.21
2023-10-13T12:36:09.798Z,31.20
2023-10-13T12:38:38.437Z,31.16
2023-10-13T12:41:35.301Z,31.20
2023-10-13T12:44:24.503Z,30.89
2023-10-13T12:47:11.795Z,30.98
2023-10-13T12:49:48.545Z,30.53
2023-10-13T12:52:20.903Z,30.64
2023-10-13T12:54:58.310Z,30.45
2023-10-13T12:57:29.660Z,30.91
2023-10-13T12:59:57.469Z,30.67
2023-10-13T13:02:26.927Z,30.72
2023-10-13T13:05:02.843Z,31.39
2023-10-13T13:07:31.122Z,31.51
2023-10-13T13:10:01.703Z,31.49
2023-10-13T13:12:32.016Z,31.14
2023-10-13T13:15:01.468Z,31.15
2023-10-13T13:17:30.466Z,31.64
2023-10-13T13:19:57.936Z,32.22
2023-10-13T13:22:25.605Z,31.93
2023-10-13T13:24:53.962Z,32.18
2023-10-13T13:27:23.651Z,32.24
2023-10-13T13:29:51.489Z,32.02
2023-10-13T13:32:30.022Z,31.44
2023-10-13T13:35:08.855Z,31.57
2023-10-13T13:37:38.262Z,32.25
2023-10-13T13:40:16.399Z,32.26
2023-10-13T13:42:44.545Z,31.90
2023-10-13T13:45:22.790Z,32.04
2023-10-13T13:47:54.489Z,31.84
2023-10-13T13:50:26.064Z,31.61
2023-10-13T13:53:01.336Z,31.54
2023-10-13T13:55:34.824Z,31.74
2023-10-13T13:58:02.463Z,31.24
2023-10-13T14:00:39.721Z,31.34
2023-10-13T14:03:14.321Z,31.39
2023-10-13T14:05:46.478Z,31.46
2023-10-13T14:08:16.299Z,31.54
2023-10-13T14:11:02.588Z,31.99
2023-10-13T14:13:50.148Z,31.48
2023-10-13T14:16:19.154Z,31.63
2023-10-13T14:18:48.146Z,31.79
2023-10-13T14:21:19.577Z,31.49
2023-10-13T14:23:48.602Z,31.39
2023-10-13T14:26:21.376Z,31.78
2023-10-13T14:29:03.147Z,31.27
2023-10-13T14:31:31.870Z,31.25
2023-10-13T14:34:00.741Z,31.25
2023-10-13T14:36:35.642Z,30.88
2023-10-13T14:39:12.750Z,30.78
2023-10-13T14:41:40.329Z,30.83
2023-10-13T14:44:08.596Z,30.79
2023-10-13T14:46:42.200Z,30.85
2023-10-13T14:49:10.991Z,30.84
2023-10-13T14:51:41.176Z,30.93
2023-10-13T14:54:08.988Z,30.50
2023-10-13T14:56:36.759Z,30.73
2023-10-13T14:59:06.150Z,30.52
2023-10-13T15:01:34.074Z,30.46
2023-10-13T15:04:01.934Z,30.45
2023-10-13T15:06:32.308Z,30.31
2023-10-13T15:09:01.045Z,30.16
2023-10-13T15:11:44.159Z,30.28
2023-10-13T15:14:14.960Z,29.67
2023-10-13T15:16:44.609Z,29.95
2023-10-13T15:19:13.502Z,29.79
2023-10-13T15:21:41.689Z,29.67
2023-10-13T15:26:50.064Z,29.40
2023-10-13T15:29:27.625Z,28.95
2023-10-13T15:32:01.102Z,28.76
2023-10-13T15:34:29.677Z,28.90
2023-10-13T15:36:58.391Z,28.79
2023-10-13T15:39:29.465Z,28.67
2023-10-13T15:42:00.591Z,28.24
2023-10-13T15:44:31.502Z,28.55
2023-10-13T15:49:31.432Z,28.28
2023-10-13T15:51:59.365Z,28.24
2023-10-13T15:54:27.116Z,27.72
2023-10-13T15:56:55.846Z,27.79
2023-10-13T15:59:24.597Z,27.50
2023-10-13T16:01:58.899Z,27.30
2023-10-13T16:04:27.318Z,27.04
2023-10-13T16:06:54.944Z,26.49
2023-10-13T16:09:25.936Z,26.47
2023-10-13T16:11:55.711Z,26.51
2023-10-13T16:14:23.763Z,26.00
2023-10-13T16:16:53.876Z,26.16
2023-10-13T16:19:25.289Z,25.52
2023-10-13T16:21:54.364Z,24.88
2023-10-13T16:24:23.283Z,24.96
2023-10-13T16:26:57.095Z,25.34
2023-10-13T16:29:25.098Z,24.89
2023-10-13T16:31:52.613Z,25.27
2023-10-13T16:34:20.168Z,24.44
2023-10-13T16:36:49.570Z,24.69
2023-10-13T16:39:17.574Z,24.46
2023-10-13T16:41:47.014Z,23.95
2023-10-13T16:44:14.943Z,24.20
2023-10-13T16:46:42.532Z,24.80
2023-10-13T16:49:10.014Z,24.73
2023-10-13T16:51:38.034Z,24.31
2023-10-13T16:54:06.388Z,24.67
2023-10-13T16:56:37.064Z,24.21
2023-10-13T16:59:08.551Z,23.70
2023-10-13T17:01:38.176Z,23.83
2023-10-13T17:04:07.468Z,24.01
2023-10-13T17:06:35.161Z,23.67
2023-10-13T17:09:05.368Z,23.91
2023-10-13T17:11:33.271Z,22.57
2023-10-13T17:14:00.741Z,22.54
2023-10-13T17:16:28.297Z,22.21
2023-10-13T17:18:56.197Z,22.38
2023-10-13T17:21:34.737Z,22.26
2023-10-13T17:24:02.905Z,22.44
2023-10-13T17:26:31.959Z,22.14
2023-10-13T17:29:00.070Z,21.84
2023-10-13T17:31:28.278Z,22.57
2023-10-13T17:33:59.592Z,22.14
2023-10-13T17:36:31.054Z,22.83
2023-10-13T17:39:00.122Z,21.96
2023-10-13T17:41:29.476Z,21.77
2023-10-13T17:43:57.260Z,21.49
2023-10-13T17:46:25.792Z,21.52
2023-10-13T17:48:56.920Z,21.52
2023-10-13T17:51:25.161Z,21.92
2023-10-13T17:53:54.049Z,22.10
2023-10-13T17:56:22.009Z,21.30
2023-10-13T17:58:52.506Z,21.68
2023-10-13T18:01:21.032Z,21.74
2023-10-13T18:03:52.989Z,21.30
2023-10-13T18:06:22.836Z,21.35
2023-10-13T18:08:52.801Z,21.08
2023-10-13T18:11:25.637Z,21.19
2023-10-13T18:13:54.148Z,21.13
2023-10-13T18:16:25.630Z,20.99
2023-10-13T18:18:57.196Z,21.01
2023-10-13T18:21:25.198Z,20.61
2023-10-13T18:23:54.168Z,20.58
2023-10-13T18:26:22.132Z,20.91
2023-10-13T18:28:56.167Z,21.46
2023-10-13T18:31:23.808Z,21.65
2023-10-13T18:33:59.550Z,21.39
2023-10-13T18:36:31.086Z,21.44
2023-10-13T18:39:03.133Z,21.36
2023-10-13T18:41:32.329Z,21.17
2023-10-13T18:44:01.140Z,21.23
2023-10-13T18:46:30.273Z,21.14
2023-10-13T18:49:03.567Z,20.95
2023-10-13T18:51:34.031Z,20.94
2023-10-13T18:54:02.986Z,20.92
2023-10-13T18:56:32.438Z,20.93
2023-10-13T18:59:04.292Z,20.97
2023-10-13T19:01:37.128Z,20.78
2023-10-13T19:04:10.255Z,20.91
2023-10-13T19:06:38.779Z,20.62
2023-10-13T19:09:07.401Z,20.61
2023-10-13T19:11:37.712Z,20.55
2023-10-13T19:14:11.883Z,20.63
2023-10-13T19:16:48.007Z,20.46
2023-10-13T19:19:16.602Z,20.34
2023-10-13T19:21:47.807Z,20.39
2023-10-13T19:24:16.720Z,20.32
2023-10-13T19:26:45.267Z,20.47
2023-10-13T19:29:13.731Z,20.45
2023-10-13T19:31:44.852Z,20.17
2023-10-13T19:34:19.528Z,20.18
2023-10-13T19:36:48.245Z,20.01
2023-10-13T19:39:20.538Z,20.11
2023-10-13T19:41:48.810Z,20.07
2023-10-13T19:44:17.021Z,19.84
2023-10-13T19:46:49.449Z,20.06
2023-10-13T19:49:20.012Z,19.97
2023-10-13T19:51:48.537Z,19.87
2023-10-13T19:54:16.825Z,19.76
2023-10-13T19:56:44.856Z,19.78
2023-10-13T19:59:13.420Z,19.64
2023-10-13T20:01:44.096Z,19.61
2023-10-13T20:04:15.298Z,19.70
2023-10-13T20:06:43.611Z,19.71
2023-10-13T20:09:25.515Z,19.71
2023-10-13T20:11:53.986Z,19.65
2023-10-13T20:14:23.036Z,19.52
2023-10-13T20:16:51.208Z,19.51
2023-10-13T20:19:19.561Z,19.42
2023-10-13T20:21:48.393Z,19.27
2023-10-13T20:24:17.154Z,19.34
2023-10-13T20:26:48.155Z,19.43
2023-10-13T20:29:19.323Z,19.61
2023-10-13T20:31:49.561Z,19.28
2023-10-13T20:34:21.147Z,19.18
2023-10-13T20:36:49.144Z,19.11
2023-10-13T20:39:27.248Z,19.13
2023-10-13T20:41:55.142Z,19.31
2023-10-13T20:44:28.318Z,19.11
2023-10-13T20:46:59.100Z,19.01
2023-10-13T20:49:29.702Z,18.96
2023-10-13T20:51:57.477Z,19.10
2023-10-13T20:54:24.960Z,18.99
2023-10-13T20:56:55.672Z,19.02
2023-10-13T20:59:23.853Z,19.05
2023-10-13T21:01:51.593Z,19.01
2023-10-13T21:04:19.226Z,19.13
2023-10-13T21:06:50.846Z,19.03
2023-10-13T21:09:22.161Z,18.88
2023-10-13T21:11:50.251Z,18.83
2023-10-13T21:14:17.846Z,19.00
2023-10-13T21:16:45.349Z,18.89
2023-10-13T21:19:13.251Z,19.08
2023-10-13T21:21:41.406Z,18.34
2023-10-13T21:24:12.327Z,18.82
2023-10-13T21:26:40.297Z,18.58
2023-10-13T21:29:10.926Z,18.47
2023-10-13T21:31:57.097Z,18.37
2023-10-13T21:34:24.839Z,18.35
2023-10-13T21:36:52.355Z,18.51
2023-10-13T21:39:21.213Z,18.44
2023-10-13T21:41:54.863Z,18.14
2023-10-13T21:44:22.695Z,18.19
2023-10-13T21:46:50.188Z,18.17
2023-10-13T21:49:19.786Z,18.35
2023-10-13T21:51:47.195Z,18.20
2023-10-13T21:54:15.882Z,18.37
2023-10-13T21:56:43.629Z,18.31
2023-10-13T21:59:11.837Z,18.53
2023-10-13T22:01:45.519Z,18.33
2023-10-13T22:04:21.902Z,18.17
2023-10-13T22:06:49.719Z,18.19
2023-10-13T22:09:19.014Z,18.37
2023-10-13T22:11:46.519Z,18.22
2023-10-13T22:14:17.522Z,18.30
2023-10-13T22:16:45.476Z,18.27
2023-10-13T22:19:13.510Z,18.29
2023-10-13T22:21:41.806Z,18.04
2023-10-13T22:24:12.006Z,17.97
2023-10-13T22:26:39.607Z,18.17
2023-10-13T22:29:07.933Z,18.00
2023-10-13T22:31:36.225Z,17.78
2023-10-13T22:34:06.683Z,17.85
2023-10-13T22:36:34.278Z,17.92
2023-10-13T22:39:02.097Z,17.95
2023-10-13T22:41:34.852Z,17.84
2023-10-13T22:44:06.759Z,18.09
2023-10-13T22:46:35.326Z,18.13
2023-10-13T22:49:03.101Z,17.99
2023-10-13T22:51:30.664Z,17.85
2023-10-13T22:53:58.194Z,17.88
2023-10-13T22:56:25.881Z,17.80
2023-10-13T22:58:56.218Z,17.61
2023-10-13T23:01:23.756Z,17.63
2023-10-13T23:03:58.699Z,17.66
2023-10-13T23:06:35.259Z,17.57
2023-10-13T23:09:13.387Z,17.71
2023-10-13T23:11:40.882Z,17.77
2023-10-13T23:14:13.575Z,17.71
2023-10-13T23:16:41.397Z,17.99
2023-10-13T23:19:09.230Z,18.44
2023-10-13T23:21:39.859Z,18.10
2023-10-13T23:24:10.994Z,17.63
2023-10-13T23:26:39.894Z,17.49
2023-10-13T23:29:11.300Z,17.20
2023-10-13T23:31:39.788Z,17.35
2023-10-13T23:34:07.298Z,17.24
2023-10-13T23:36:35.340Z,17.30
2023-10-13T23:39:12.042Z,17.32
2023-10-13T23:41:42.997Z,17.49
2023-10-13T23:44:18.559Z,17.49
2023-10-13T23:46:46.470Z,17.45
2023-10-13T23:49:19.265Z,17.72
2023-10-13T23:51:51.169Z,17.33
2023-10-13T23:54:19.598Z,17.33
2023-10-13T23:56:49.149Z,17.37
2023-10-13T23:59:29.741Z,17.19
